Time;durP1;ratioP1;P1;durP2;ratioP2;P2;SDS_P1;SDS_P2;PMS_P1;PMS_P2;Temp;Humidity;BMP_temperature;BMP_pressure;BME280_temperature;BME280_humidity;BME280_pressure;Samples;Min_cycle;Max_cycle;Signal;HPM_P1;HPM_P2
2023/08/07 00:00:37;;;;;;;0.47;0.40;;;;;;;;;;6182174;28;19921;-67
2023/08/07 00:03:37;;;;;;;1.23;0.50;;;;;;;;;;6183045;28;20038;-67
2023/08/07 00:06:38;;;;;;;0.40;0.40;;;;;;;;;;6186934;28;20033;-68
2023/08/07 00:09:38;;;;;;;1.90;0.40;;;;;;;;;;6184199;28;20033;-67
2023/08/07 00:12:38;;;;;;;1.47;0.40;;;;;;;;;;6179885;28;20344;-67
2023/08/07 00:15:39;;;;;;;1.10;0.37;;;;;;;;;;6185417;28;20094;-67
2023/08/07 00:18:39;;;;;;;0.65;0.32;;;;;;;;;;6186744;28;20376;-67
2023/08/07 00:21:39;;;;;;;2.63;0.40;;;;;;;;;;6181578;28;20038;-67
2023/08/07 00:24:40;;;;;;;0.60;0.50;;;;;;;;;;6184568;28;20057;-68
2023/08/07 00:27:40;;;;;;;0.47;0.40;;;;;;;;;;6175972;28;20018;-68
2023/08/07 00:30:40;;;;;;;0.87;0.60;;;;;;;;;;6185679;28;20034;-68
2023/08/07 00:33:40;;;;;;;0.63;0.50;;;;;;;;;;6180788;28;20038;-67
2023/08/07 00:36:41;;;;;;;0.50;0.50;;;;;;;;;;6185168;28;20023;-67
2023/08/07 00:39:41;;;;;;;0.80;0.50;;;;;;;;;;6179966;28;20030;-67
2023/08/07 00:42:41;;;;;;;4.37;0.80;;;;;;;;;;6181467;28;20034;-68
2023/08/07 00:45:45;;;;;;;1.20;0.50;;;;;;;;;;6179300;28;20550;-67
2023/08/07 00:48:45;;;;;;;1.73;0.40;;;;;;;;;;6180466;28;20046;-68
2023/08/07 00:51:45;;;;;;;0.43;0.40;;;;;;;;;;6169067;28;20089;-68
2023/08/07 00:54:46;;;;;;;1.20;0.50;;;;;;;;;;6171651;28;20042;-68
2023/08/07 00:57:46;;;;;;;0.60;0.60;;;;;;;;;;6179456;28;20352;-68
2023/08/07 01:00:46;;;;;;;1.40;0.60;;;;;;;;;;6179889;28;20030;-69
2023/08/07 01:03:46;;;;;;;1.90;0.50;;;;;;;;;;6185235;28;20049;-68
2023/08/07 01:06:47;;;;;;;0.40;0.40;;;;;;;;;;6183526;28;20172;-68
2023/08/07 01:09:47;;;;;;;0.50;0.50;;;;;;;;;;6180826;28;20117;-68
2023/08/07 01:12:57;;;;;;;1.03;0.43;;;;;;;;;;6179355;28;20073;-68
2023/08/07 01:15:59;;;;;;;0.60;0.52;;;;;;;;;;6176639;28;20323;-68
2023/08/07 01:19:00;;;;;;;0.90;0.65;;;;;;;;;;6177788;28;20141;-69
2023/08/07 01:22:18;;;;;;;0.98;0.50;;;;;;;;;;6185654;28;20041;-68
2023/08/07 01:25:19;;;;;;;1.65;0.80;;;;;;;;;;6184910;28;20041;-70
2023/08/07 01:28:26;;;;;;;0.53;0.53;;;;;;;;;;6179849;28;20486;-68
2023/08/07 01:31:29;;;;;;;1.15;0.50;;;;;;;;;;6179628;28;20077;-68
2023/08/07 01:34:30;;;;;;;1.02;0.60;;;;;;;;;;6178780;28;20505;-68
2023/08/07 01:37:31;;;;;;;0.85;0.60;;;;;;;;;;6183296;28;20075;-68
2023/08/07 01:40:32;;;;;;;1.05;0.60;;;;;;;;;;6187173;28;20100;-68
2023/08/07 01:43:32;;;;;;;0.97;0.57;;;;;;;;;;6179743;28;20455;-68
2023/08/07 01:46:33;;;;;;;0.50;0.50;;;;;;;;;;6182402;28;20369;-69
2023/08/07 01:49:33;;;;;;;1.10;0.70;;;;;;;;;;6179786;28;20054;-68
2023/08/07 01:52:33;;;;;;;1.53;0.50;;;;;;;;;;6186558;28;20139;-68
2023/08/07 01:55:33;;;;;;;2.23;0.50;;;;;;;;;;6176724;28;20085;-68
2023/08/07 01:58:34;;;;;;;1.03;0.70;;;;;;;;;;6177309;28;20026;-69
2023/08/07 02:01:34;;;;;;;1.03;0.80;;;;;;;;;;6186885;28;20070;-67
2023/08/07 02:04:34;;;;;;;1.10;0.70;;;;;;;;;;6183176;28;20058;-70
2023/08/07 02:07:34;;;;;;;2.63;0.70;;;;;;;;;;6180801;28;20026;-67
2023/08/07 02:10:35;;;;;;;1.40;0.80;;;;;;;;;;6184987;28;20529;-69
2023/08/07 02:13:35;;;;;;;1.23;0.60;;;;;;;;;;6183300;28;20160;-68
2023/08/07 02:16:35;;;;;;;1.37;0.70;;;;;;;;;;6190047;28;20084;-69
2023/08/07 02:19:36;;;;;;;2.80;0.80;;;;;;;;;;6187810;28;21740;-69
2023/08/07 02:22:36;;;;;;;0.93;0.60;;;;;;;;;;6187191;28;20034;-69
2023/08/07 02:25:36;;;;;;;0.70;0.60;;;;;;;;;;6173728;28;20037;-69
2023/08/07 02:28:36;;;;;;;0.93;0.60;;;;;;;;;;6170378;28;20067;-69
2023/08/07 02:31:37;;;;;;;2.33;0.60;;;;;;;;;;6188232;28;20041;-69
2023/08/07 02:34:37;;;;;;;0.97;0.60;;;;;;;;;;6186322;28;20038;-70
2023/08/07 02:37:37;;;;;;;1.03;0.60;;;;;;;;;;6185399;28;20034;-69
2023/08/07 02:40:37;;;;;;;1.53;0.70;;;;;;;;;;6183719;28;20045;-69
2023/08/07 02:43:38;;;;;;;4.03;0.77;;;;;;;;;;6190575;28;20038;-69
2023/08/07 02:46:38;;;;;;;0.63;0.53;;;;;;;;;;6187791;28;20030;-70
2023/08/07 02:49:38;;;;;;;0.97;0.70;;;;;;;;;;6185445;28;20026;-69
2023/08/07 02:52:38;;;;;;;1.10;0.80;;;;;;;;;;6184994;28;20129;-68
2023/08/07 02:55:38;;;;;;;1.47;0.83;;;;;;;;;;6185161;28;20042;-68
2023/08/07 02:58:39;;;;;;;1.53;0.90;;;;;;;;;;6185901;28;20092;-68
2023/08/07 03:01:39;;;;;;;1.63;0.60;;;;;;;;;;6186362;28;20030;-68
2023/08/07 03:04:39;;;;;;;1.13;0.87;;;;;;;;;;6188217;28;20038;-68
2023/08/07 03:07:39;;;;;;;1.03;0.93;;;;;;;;;;6186019;28;20038;-68
2023/08/07 03:10:39;;;;;;;1.07;0.60;;;;;;;;;;6185404;28;20471;-69
2023/08/07 03:13:40;;;;;;;2.47;0.70;;;;;;;;;;6181610;28;20030;-68
2023/08/07 03:16:40;;;;;;;0.83;0.67;;;;;;;;;;6183140;28;20058;-68
2023/08/07 03:19:42;;;;;;;0.73;0.60;;;;;;;;;;6186311;28;20050;-68
2023/08/07 03:22:42;;;;;;;0.90;0.80;;;;;;;;;;6189646;28;20022;-69
2023/08/07 03:25:42;;;;;;;1.03;0.60;;;;;;;;;;6190311;28;20080;-68
2023/08/07 03:28:45;;;;;;;1.73;0.70;;;;;;;;;;6185238;28;20112;-69
2023/08/07 03:31:45;;;;;;;1.58;0.70;;;;;;;;;;6184203;28;20030;-68
2023/08/07 03:34:45;;;;;;;0.90;0.60;;;;;;;;;;6184806;28;20026;-68
2023/08/07 03:37:45;;;;;;;0.93;0.53;;;;;;;;;;6188874;28;20122;-68
2023/08/07 03:40:46;;;;;;;0.77;0.60;;;;;;;;;;6180100;28;20112;-68
2023/08/07 03:43:46;;;;;;;1.37;0.67;;;;;;;;;;6182880;28;20072;-68
2023/08/07 03:46:46;;;;;;;1.47;0.50;;;;;;;;;;6185645;28;20478;-68
2023/08/07 03:49:47;;;;;;;2.00;0.73;;;;;;;;;;6183940;28;20018;-68
2023/08/07 03:52:47;;;;;;;0.60;0.50;;;;;;;;;;6189409;28;20061;-68
2023/08/07 03:55:51;;;;;;;0.50;0.50;;;;;;;;;;6186981;28;20062;-69
2023/08/07 03:58:52;;;;;;;0.95;0.60;;;;;;;;;;6194006;28;20018;-69
2023/08/07 04:01:52;;;;;;;0.70;0.60;;;;;;;;;;6191738;28;20057;-68
2023/08/07 04:04:52;;;;;;;1.80;0.83;;;;;;;;;;6191272;28;20206;-68
2023/08/07 04:07:52;;;;;;;0.73;0.73;;;;;;;;;;6184537;28;20026;-67
2023/08/07 04:11:03;;;;;;;0.60;0.50;;;;;;;;;;6183804;28;20054;-68
2023/08/07 04:14:03;;;;;;;0.47;0.47;;;;;;;;;;6180454;28;20026;-68
2023/08/07 04:17:04;;;;;;;1.63;0.68;;;;;;;;;;6179143;28;20042;-68
2023/08/07 04:20:05;;;;;;;0.60;0.53;;;;;;;;;;6187389;28;20026;-68
2023/08/07 04:23:05;;;;;;;0.98;0.75;;;;;;;;;;6181802;28;20045;-67
2023/08/07 04:26:05;;;;;;;1.10;0.60;;;;;;;;;;6177570;28;20053;-67
2023/08/07 04:29:06;;;;;;;1.23;0.60;;;;;;;;;;6184765;28;20026;-67
2023/08/07 04:32:06;;;;;;;1.33;0.80;;;;;;;;;;6178628;28;20018;-67
2023/08/07 04:35:07;;;;;;;1.30;0.50;;;;;;;;;;6179452;28;20042;-67
2023/08/07 04:38:07;;;;;;;1.20;0.45;;;;;;;;;;6186412;28;20543;-70
2023/08/07 04:41:07;;;;;;;0.90;0.50;;;;;;;;;;6183767;28;20029;-67
2023/08/07 04:44:07;;;;;;;0.40;0.40;;;;;;;;;;6179659;28;20038;-67
2023/08/07 04:47:08;;;;;;;0.60;0.50;;;;;;;;;;6187027;28;20023;-67
2023/08/07 04:50:08;;;;;;;1.10;0.47;;;;;;;;;;6179629;28;20065;-67
2023/08/07 04:53:09;;;;;;;0.70;0.60;;;;;;;;;;6188458;28;20057;-67
2023/08/07 04:56:09;;;;;;;0.98;0.50;;;;;;;;;;6195955;28;20026;-68
2023/08/07 04:59:09;;;;;;;0.73;0.40;;;;;;;;;;6196793;28;20018;-68
2023/08/07 05:02:10;;;;;;;0.50;0.40;;;;;;;;;;6194200;28;20025;-68
2023/08/07 05:05:10;;;;;;;1.40;0.40;;;;;;;;;;6197464;28;20077;-68
2023/08/07 05:08:10;;;;;;;0.30;0.30;;;;;;;;;;6195770;28;20033;-68
2023/08/07 05:11:11;;;;;;;0.73;0.30;;;;;;;;;;6193747;28;20080;-68
2023/08/07 05:14:11;;;;;;;0.73;0.37;;;;;;;;;;6187224;28;20050;-69
2023/08/07 05:17:12;;;;;;;0.30;0.30;;;;;;;;;;6185922;28;20062;-68
2023/08/07 05:20:13;;;;;;;0.73;0.22;;;;;;;;;;6187133;28;20482;-69
2023/08/07 05:23:13;;;;;;;0.97;0.20;;;;;;;;;;6196554;28;20026;-69
2023/08/07 05:26:13;;;;;;;0.40;0.30;;;;;;;;;;6189504;28;20125;-68
2023/08/07 05:29:13;;;;;;;0.87;0.30;;;;;;;;;;6190850;28;20077;-68
2023/08/07 05:32:14;;;;;;;0.20;0.20;;;;;;;;;;6192919;28;20116;-68
2023/08/07 05:35:14;;;;;;;1.05;0.20;;;;;;;;;;6187807;28;20395;-68
2023/08/07 05:38:15;;;;;;;0.20;0.20;;;;;;;;;;6194488;28;20041;-68
2023/08/07 05:41:16;;;;;;;0.40;0.20;;;;;;;;;;6191553;28;20061;-68
2023/08/07 05:44:16;;;;;;;0.38;0.17;;;;;;;;;;6193541;28;20077;-68
2023/08/07 05:47:16;;;;;;;0.10;0.10;;;;;;;;;;6175980;28;20034;-68
2023/08/07 05:50:16;;;;;;;0.20;0.20;;;;;;;;;;6188916;28;20825;-66
2023/08/07 05:53:17;;;;;;;1.37;0.30;;;;;;;;;;6182754;28;20133;-77
2023/08/07 05:56:17;;;;;;;0.23;0.13;;;;;;;;;;6182278;28;20529;-72
2023/08/07 05:59:18;;;;;;;0.10;0.10;;;;;;;;;;6182030;28;20033;-69
2023/08/07 06:02:19;;;;;;;0.20;0.20;;;;;;;;;;6192567;28;20415;-75
2023/08/07 06:05:20;;;;;;;0.35;0.28;;;;;;;;;;6184094;28;20487;-74
2023/08/07 06:08:20;;;;;;;1.27;0.10;;;;;;;;;;6180379;28;20113;-75
2023/08/07 06:11:21;;;;;;;1.30;0.20;;;;;;;;;;6185747;28;20026;-71
2023/08/07 06:14:21;;;;;;;0.00;0.00;;;;;;;;;;6185902;28;20145;-75
2023/08/07 06:17:21;;;;;;;0.00;0.00;;;;;;;;;;6182606;28;20319;-74
2023/08/07 06:20:21;;;;;;;1.77;0.20;;;;;;;;;;6182695;28;20446;-72
2023/08/07 06:23:21;;;;;;;0.67;0.17;;;;;;;;;;6189356;28;20038;-72
2023/08/07 06:26:22;;;;;;;0.17;0.17;;;;;;;;;;6181855;28;20145;-72
2023/08/07 06:29:23;;;;;;;0.30;0.10;;;;;;;;;;6182861;28;20045;-74
2023/08/07 06:32:23;;;;;;;;;;;;;;;;;;6177804;28;20041;-73
2023/08/07 06:35:23;;;;;;;1.45;0.20;;;;;;;;;;6181723;28;21561;-75
2023/08/07 06:38:24;;;;;;;0.10;0.10;;;;;;;;;;6188936;28;20081;-76
2023/08/07 06:41:24;;;;;;;0.10;0.10;;;;;;;;;;6185000;28;20033;-73
2023/08/07 06:44:24;;;;;;;0.23;0.20;;;;;;;;;;6185431;28;20086;-70
2023/08/07 06:47:24;;;;;;;0.30;0.20;;;;;;;;;;6183966;28;20065;-74
2023/08/07 06:50:24;;;;;;;1.43;0.20;;;;;;;;;;6181924;28;20031;-73
2023/08/07 06:53:25;;;;;;;0.20;0.20;;;;;;;;;;6162749;28;20202;-78
2023/08/07 06:56:25;;;;;;;0.50;0.37;;;;;;;;;;6180414;28;20049;-71
2023/08/07 06:59:25;;;;;;;0.60;0.20;;;;;;;;;;6187393;28;20031;-71
2023/08/07 07:02:26;;;;;;;1.60;0.40;;;;;;;;;;6161985;28;20057;-71
2023/08/07 07:05:26;;;;;;;0.30;0.13;;;;;;;;;;6198829;28;20031;-71
2023/08/07 07:08:26;;;;;;;0.20;0.20;;;;;;;;;;6197112;28;20034;-71
2023/08/07 07:11:26;;;;;;;0.87;0.43;;;;;;;;;;6195123;28;20053;-70
2023/08/07 07:14:26;;;;;;;0.67;0.20;;;;;;;;;;6194008;28;20030;-71
2023/08/07 07:17:27;;;;;;;0.20;0.20;;;;;;;;;;6194351;28;20018;-70
2023/08/07 07:20:27;;;;;;;1.90;0.30;;;;;;;;;;6197683;28;20108;-70
2023/08/07 07:23:28;;;;;;;1.03;0.50;;;;;;;;;;6191327;28;20030;-71
2023/08/07 07:26:28;;;;;;;0.60;0.30;;;;;;;;;;6196562;28;20088;-70
2023/08/07 07:29:28;;;;;;;1.77;0.40;;;;;;;;;;6198957;28;20063;-70
2023/08/07 07:32:29;;;;;;;1.93;0.50;;;;;;;;;;6197513;28;20038;-70
2023/08/07 07:35:29;;;;;;;0.50;0.30;;;;;;;;;;6198189;28;20098;-69
2023/08/07 07:38:29;;;;;;;0.43;0.33;;;;;;;;;;6197917;28;20041;-68
2023/08/07 07:41:29;;;;;;;0.85;0.40;;;;;;;;;;6194523;28;20045;-69
2023/08/07 07:44:30;;;;;;;0.50;0.30;;;;;;;;;;6198493;28;20076;-68
2023/08/07 07:47:30;;;;;;;0.30;0.30;;;;;;;;;;6197619;28;20081;-68
2023/08/07 07:50:30;;;;;;;1.02;0.45;;;;;;;;;;6196387;28;20490;-69
2023/08/07 07:53:30;;;;;;;0.40;0.40;;;;;;;;;;6191524;28;20058;-69
2023/08/07 07:56:31;;;;;;;0.82;0.40;;;;;;;;;;6173544;28;20027;-70
2023/08/07 07:59:31;;;;;;;1.03;0.50;;;;;;;;;;6195806;28;20026;-70
2023/08/07 08:02:31;;;;;;;0.73;0.40;;;;;;;;;;6192074;28;20109;-69
2023/08/07 08:05:31;;;;;;;1.30;0.40;;;;;;;;;;6196949;28;20020;-69
2023/08/07 08:08:32;;;;;;;0.73;0.60;;;;;;;;;;6197594;28;20465;-69
2023/08/07 08:11:32;;;;;;;1.97;0.40;;;;;;;;;;6199067;28;20152;-69
2023/08/07 08:14:33;;;;;;;1.52;0.40;;;;;;;;;;6216187;28;20125;-69
2023/08/07 08:17:33;;;;;;;0.80;0.50;;;;;;;;;;6192989;28;20041;-69
2023/08/07 08:20:33;;;;;;;0.80;0.47;;;;;;;;;;6189402;28;20049;-68
2023/08/07 08:23:34;;;;;;;1.07;0.40;;;;;;;;;;6195519;28;20106;-69
2023/08/07 08:26:34;;;;;;;0.73;0.50;;;;;;;;;;6190403;28;20026;-67
2023/08/07 08:29:35;;;;;;;0.52;0.30;;;;;;;;;;6190957;28;20026;-66
2023/08/07 08:32:35;;;;;;;1.60;0.50;;;;;;;;;;6188274;28;20061;-69
2023/08/07 08:35:35;;;;;;;0.50;0.50;;;;;;;;;;6192947;28;20096;-69
2023/08/07 08:38:35;;;;;;;1.67;0.60;;;;;;;;;;6191961;28;20021;-70
2023/08/07 08:41:36;;;;;;;1.33;0.63;;;;;;;;;;6196162;28;20446;-67
2023/08/07 08:44:37;;;;;;;0.40;0.40;;;;;;;;;;6193276;28;20023;-67
2023/08/07 08:47:38;;;;;;;0.60;0.50;;;;;;;;;;6188028;28;20399;-70
2023/08/07 08:50:39;;;;;;;0.45;0.43;;;;;;;;;;6182502;28;20062;-71
2023/08/07 08:53:39;;;;;;;0.68;0.40;;;;;;;;;;6181591;28;20391;-72
2023/08/07 08:56:39;;;;;;;0.77;0.60;;;;;;;;;;6176688;28;20177;-71
2023/08/07 08:59:41;;;;;;;1.23;0.50;;;;;;;;;;6194322;28;20038;-71
2023/08/07 09:02:41;;;;;;;;;;;;;;;;;;6178972;28;20048;-71
2023/08/07 09:05:41;;;;;;;0.50;0.50;;;;;;;;;;6193904;28;20354;-72
2023/08/07 09:08:42;;;;;;;0.70;0.50;;;;;;;;;;6195666;28;20022;-71
2023/08/07 09:11:43;;;;;;;0.40;0.40;;;;;;;;;;6195018;28;20398;-71
2023/08/07 09:14:44;;;;;;;1.92;0.40;;;;;;;;;;6193993;28;20065;-71
2023/08/07 09:17:44;;;;;;;;;;;;;;;;;;6175848;28;20057;-70
2023/08/07 09:20:44;;;;;;;0.65;0.50;;;;;;;;;;6194895;28;20325;-70
2023/08/07 09:23:45;;;;;;;0.97;0.50;;;;;;;;;;6194682;28;20033;-69
2023/08/07 09:26:45;;;;;;;0.68;0.52;;;;;;;;;;6192256;28;20065;-69
2023/08/07 09:29:46;;;;;;;0.97;0.60;;;;;;;;;;6181030;28;20082;-69
2023/08/07 09:32:49;;;;;;;1.77;0.70;;;;;;;;;;6158728;28;20025;-70
2023/08/07 09:35:50;;;;;;;1.00;0.60;;;;;;;;;;6192838;28;20041;-72
2023/08/07 09:38:50;;;;;;;0.90;0.60;;;;;;;;;;6202862;28;20113;-71
2023/08/07 09:41:51;;;;;;;0.80;0.50;;;;;;;;;;6195771;28;20269;-71
2023/08/07 09:44:51;;;;;;;0.80;0.70;;;;;;;;;;6192294;28;20030;-71
2023/08/07 09:48:01;;;;;;;1.03;0.70;;;;;;;;;;6191672;28;20031;-72
2023/08/07 09:51:03;;;;;;;0.75;0.60;;;;;;;;;;5832863;28;10000391;-72
2023/08/07 09:54:03;;;;;;;0.73;0.63;;;;;;;;;;6187190;28;20674;-70
2023/08/07 09:57:04;;;;;;;0.90;0.57;;;;;;;;;;6189279;28;20140;-72
2023/08/07 10:00:11;;;;;;;1.80;0.60;;;;;;;;;;6191087;28;20041;-71
2023/08/07 10:03:11;;;;;;;1.10;0.60;;;;;;;;;;6188466;28;20473;-71
2023/08/07 10:06:12;;;;;;;1.37;0.90;;;;;;;;;;6189200;28;20022;-72
2023/08/07 10:09:12;;;;;;;2.00;0.80;;;;;;;;;;6193559;28;20116;-73
2023/08/07 10:12:12;;;;;;;0.80;0.60;;;;;;;;;;6202351;28;20296;-73
2023/08/07 10:15:13;;;;;;;1.10;0.70;;;;;;;;;;6186194;28;20740;-72
2023/08/07 10:18:14;;;;;;;1.50;0.90;;;;;;;;;;6191970;28;20045;-72
2023/08/07 10:21:14;;;;;;;0.70;0.70;;;;;;;;;;6192150;28;20030;-71
2023/08/07 10:24:15;;;;;;;0.93;0.73;;;;;;;;;;6189028;28;20034;-71
2023/08/07 10:27:16;;;;;;;1.10;0.70;;;;;;;;;;6191110;28;20118;-73
2023/08/07 10:30:19;;;;;;;0.98;0.85;;;;;;;;;;6193764;28;20061;-72
2023/08/07 10:33:20;;;;;;;1.27;0.80;;;;;;;;;;6188921;28;20356;-72
2023/08/07 10:36:20;;;;;;;1.55;0.80;;;;;;;;;;6192868;28;20026;-71
2023/08/07 10:39:22;;;;;;;0.60;0.60;;;;;;;;;;6194857;28;20041;-71
2023/08/07 10:42:22;;;;;;;0.80;0.70;;;;;;;;;;6192144;28;20018;-72
2023/08/07 10:45:23;;;;;;;0.90;0.77;;;;;;;;;;6195499;28;20038;-72
2023/08/07 10:48:24;;;;;;;0.80;0.60;;;;;;;;;;6191136;28;20041;-72
2023/08/07 10:51:28;;;;;;;1.40;0.97;;;;;;;;;;6195168;28;20031;-76
2023/08/07 10:54:28;;;;;;;0.80;0.80;;;;;;;;;;6192401;28;20030;-75
2023/08/07 10:57:31;;;;;;;0.93;0.80;;;;;;;;;;6193373;28;20038;-76
2023/08/07 11:00:31;;;;;;;1.23;1.00;;;;;;;;;;6189819;28;20386;-73
2023/08/07 11:03:35;;;;;;;1.47;1.00;;;;;;;;;;6194985;28;20033;-73
2023/08/07 11:06:36;;;;;;;1.35;1.08;;;;;;;;;;6195371;28;20034;-75
2023/08/07 11:09:36;;;;;;;1.20;1.05;;;;;;;;;;6195590;28;20486;-73
2023/08/07 11:12:37;;;;;;;1.53;1.13;;;;;;;;;;6195483;28;20031;-72
2023/08/07 11:15:37;;;;;;;1.50;0.98;;;;;;;;;;6195206;28;20034;-74
2023/08/07 11:18:41;;;;;;;1.10;0.90;;;;;;;;;;6197443;28;20035;-73
2023/08/07 11:21:42;;;;;;;1.52;0.98;;;;;;;;;;6199431;28;20018;-75
2023/08/07 11:24:42;;;;;;;1.30;1.20;;;;;;;;;;6180485;28;20030;-75
2023/08/07 11:27:43;;;;;;;2.47;1.40;;;;;;;;;;6198196;28;20096;-74
2023/08/07 11:30:44;;;;;;;1.42;1.13;;;;;;;;;;6180504;28;20495;-73
2023/08/07 11:33:44;;;;;;;1.40;1.00;;;;;;;;;;6174949;28;20171;-74
2023/08/07 11:36:45;;;;;;;1.23;1.00;;;;;;;;;;6198326;28;20033;-73
2023/08/07 11:39:45;;;;;;;1.50;1.10;;;;;;;;;;6193760;28;20034;-73
2023/08/07 11:42:46;;;;;;;2.57;1.40;;;;;;;;;;6187473;28;20045;-72
2023/08/07 11:45:46;;;;;;;1.53;1.23;;;;;;;;;;6193466;28;20487;-73
2023/08/07 11:48:46;;;;;;;1.30;1.20;;;;;;;;;;6190608;28;20027;-72
2023/08/07 11:51:46;;;;;;;1.30;1.07;;;;;;;;;;6190044;28;20050;-74
2023/08/07 11:54:49;;;;;;;1.50;1.27;;;;;;;;;;6172900;28;20865;-73
2023/08/07 11:57:49;;;;;;;1.50;1.00;;;;;;;;;;6192439;28;20026;-73
2023/08/07 12:00:49;;;;;;;2.03;1.30;;;;;;;;;;6192232;28;20061;-73
2023/08/07 12:03:56;;;;;;;1.43;1.23;;;;;;;;;;6185186;28;20105;-73
2023/08/07 12:06:57;;;;;;;2.17;1.40;;;;;;;;;;6194343;28;20058;-74
2023/08/07 12:09:57;;;;;;;1.43;1.20;;;;;;;;;;6205100;28;20758;-74
2023/08/07 12:13:04;;;;;;;1.30;1.20;;;;;;;;;;6194648;28;20435;-73
2023/08/07 12:16:05;;;;;;;1.50;1.40;;;;;;;;;;6190921;28;20041;-73
2023/08/07 12:19:05;;;;;;;2.23;1.50;;;;;;;;;;6189831;28;20031;-74
2023/08/07 12:22:10;;;;;;;1.83;1.10;;;;;;;;;;6189626;28;20096;-73
2023/08/07 12:25:10;;;;;;;2.58;1.50;;;;;;;;;;6191367;28;20125;-73
2023/08/07 12:28:10;;;;;;;1.63;1.30;;;;;;;;;;6192708;28;20018;-73
2023/08/07 12:31:10;;;;;;;2.50;1.70;;;;;;;;;;6192409;28;20029;-71
2023/08/07 12:34:11;;;;;;;3.70;1.60;;;;;;;;;;6192606;28;20030;-75
2023/08/07 12:37:11;;;;;;;2.40;1.73;;;;;;;;;;6194209;28;20046;-74
2023/08/07 12:40:12;;;;;;;2.92;1.90;;;;;;;;;;6191275;28;20665;-72
2023/08/07 12:43:12;;;;;;;1.77;1.67;;;;;;;;;;6194968;28;20104;-72
2023/08/07 12:46:12;;;;;;;2.90;1.57;;;;;;;;;;6194383;28;20522;-73
2023/08/07 12:49:12;;;;;;;2.63;1.97;;;;;;;;;;6193482;28;20391;-73
2023/08/07 12:52:12;;;;;;;2.07;1.67;;;;;;;;;;6193203;28;20077;-72
2023/08/07 12:55:14;;;;;;;1.75;1.60;;;;;;;;;;6190447;28;20043;-72
2023/08/07 12:58:15;;;;;;;2.03;1.50;;;;;;;;;;6174010;28;20026;-71
2023/08/07 13:01:15;;;;;;;1.88;1.50;;;;;;;;;;6196327;28;20022;-70
2023/08/07 13:04:16;;;;;;;2.47;1.60;;;;;;;;;;6192767;28;20037;-68
2023/08/07 13:07:17;;;;;;;3.50;1.98;;;;;;;;;;6192181;28;20135;-68
2023/08/07 13:10:17;;;;;;;3.20;1.70;;;;;;;;;;6192318;28;20519;-70
2023/08/07 13:13:17;;;;;;;1.77;1.67;;;;;;;;;;6188925;28;20044;-68
2023/08/07 13:16:17;;;;;;;2.17;1.97;;;;;;;;;;6189254;28;20459;-68
2023/08/07 13:19:17;;;;;;;;;;;;;;;;;;6185958;28;20048;-68
2023/08/07 13:22:18;;;;;;;2.85;1.40;;;;;;;;;;6192803;28;20378;-68
2023/08/07 13:25:18;;;;;;;;;;;;;;;;;;6192689;28;20364;-67
2023/08/07 13:28:18;;;;;;;1.58;0.98;;;;;;;;;;6189944;28;19920;-69
2023/08/07 13:31:18;;;;;;;1.58;1.13;;;;;;;;;;6189049;28;20034;-69
2023/08/07 13:34:18;;;;;;;;;;;;;;;;;;6165498;28;20045;-69
2023/08/07 13:37:19;;;;;;;1.50;1.33;;;;;;;;;;5843046;28;10000750;-68
2023/08/07 13:40:19;;;;;;;;;;;;;;;;;;6175135;28;20103;-69
2023/08/07 13:43:19;;;;;;;1.65;1.30;;;;;;;;;;6195669;28;20014;-69
2023/08/07 13:46:20;;;;;;;1.97;1.23;;;;;;;;;;6195250;28;20046;-67
2023/08/07 13:49:21;;;;;;;1.50;1.10;;;;;;;;;;6193684;28;20101;-67
2023/08/07 13:52:21;;;;;;;;;;;;;;;;;;6206900;28;20069;-67
2023/08/07 13:55:21;;;;;;;2.53;1.42;;;;;;;;;;6211824;28;19921;-67
2023/08/07 13:58:21;;;;;;;;;;;;;;;;;;6178831;28;20030;-67
2023/08/07 14:01:22;;;;;;;2.63;1.20;;;;;;;;;;6172900;28;19992;-67
2023/08/07 14:04:22;;;;;;;;;;;;;;;;;;6184269;28;20027;-69
2023/08/07 14:07:23;;;;;;;2.22;1.20;;;;;;;;;;6196024;28;19937;-69
2023/08/07 14:10:23;;;;;;;;;;;;;;;;;;6216219;28;20167;-69
2023/08/07 14:13:23;;;;;;;1.40;1.10;;;;;;;;;;6225275;28;19921;-69
2023/08/07 14:16:24;;;;;;;1.33;1.08;;;;;;;;;;6224945;28;20045;-69
2023/08/07 14:19:25;;;;;;;1.35;1.20;;;;;;;;;;6216969;28;20022;-69
2023/08/07 14:22:25;;;;;;;2.87;1.23;;;;;;;;;;6187622;28;20395;-68
2023/08/07 14:25:25;;;;;;;1.83;1.30;;;;;;;;;;6201363;28;20060;-67
2023/08/07 14:28:28;;;;;;;1.48;1.33;;;;;;;;;;6207586;28;20014;-69
2023/08/07 14:31:28;;;;;;;2.78;1.40;;;;;;;;;;6192675;28;20047;-69
2023/08/07 14:34:28;;;;;;;1.53;1.20;;;;;;;;;;6193824;28;20046;-68
2023/08/07 14:37:28;;;;;;;4.10;1.37;;;;;;;;;;6195794;28;20030;-69
2023/08/07 14:40:29;;;;;;;2.93;1.30;;;;;;;;;;6194820;28;20723;-69
2023/08/07 14:43:29;;;;;;;;;;;;;;;;;;6196156;28;20049;-69
2023/08/07 14:46:29;;;;;;;1.45;1.15;;;;;;;;;;6191078;28;19972;-69
2023/08/07 14:49:29;;;;;;;;;;;;;;;;;;6194332;28;20038;-69
2023/08/07 14:52:29;;;;;;;1.40;1.30;;;;;;;;;;6193950;28;19944;-69
2023/08/07 14:55:30;;;;;;;2.33;1.40;;;;;;;;;;6194735;28;20400;-70
2023/08/07 14:58:32;;;;;;;;;;;;;;;;;;6197705;28;20101;-68
2023/08/07 15:01:32;;;;;;;4.18;1.70;;;;;;;;;;6194548;28;19921;-68
2023/08/07 15:04:32;;;;;;;1.63;1.53;;;;;;;;;;6193778;28;20058;-69
2023/08/07 15:07:34;;;;;;;1.23;1.13;;;;;;;;;;6176730;28;20269;-68
2023/08/07 15:10:35;;;;;;;2.03;1.08;;;;;;;;;;6194612;28;20368;-68
2023/08/07 15:13:35;;;;;;;1.63;1.42;;;;;;;;;;6195303;28;20080;-68
2023/08/07 15:16:37;;;;;;;1.92;1.20;;;;;;;;;;6194227;28;20026;-68
2023/08/07 15:19:37;;;;;;;3.88;1.30;;;;;;;;;;6192691;28;20407;-69
2023/08/07 15:22:37;;;;;;;2.30;1.43;;;;;;;;;;6190980;28;20034;-69
2023/08/07 15:25:38;;;;;;;1.27;1.10;;;;;;;;;;6185537;28;20030;-69
2023/08/07 15:28:39;;;;;;;1.30;1.00;;;;;;;;;;6189749;28;20030;-69
2023/08/07 15:31:39;;;;;;;3.10;1.83;;;;;;;;;;6192678;28;20061;-69
2023/08/07 15:34:40;;;;;;;2.20;1.73;;;;;;;;;;6195588;28;20030;-69
2023/08/07 15:37:40;;;;;;;1.50;1.20;;;;;;;;;;6193163;28;20030;-68
2023/08/07 15:40:40;;;;;;;2.00;1.63;;;;;;;;;;6195131;28;20030;-68
2023/08/07 15:43:41;;;;;;;3.00;1.60;;;;;;;;;;6188833;28;20034;-69
2023/08/07 15:46:41;;;;;;;2.08;1.88;;;;;;;;;;6188131;28;20113;-70
2023/08/07 15:49:44;;;;;;;1.60;1.50;;;;;;;;;;6192628;28;20446;-69
2023/08/07 15:52:44;;;;;;;2.08;1.10;;;;;;;;;;6192482;28;20074;-70
2023/08/07 15:55:44;;;;;;;0.97;0.80;;;;;;;;;;6182616;28;20114;-69
2023/08/07 15:58:44;;;;;;;;;;;;;;;;;;6190021;28;20669;-71
2023/08/07 16:01:45;;;;;;;2.20;0.90;;;;;;;;;;6182176;28;20038;-70
2023/08/07 16:04:45;;;;;;;;;;;;;;;;;;6189804;28;20026;-70
2023/08/07 16:07:45;;;;;;;1.75;1.35;;;;;;;;;;6197597;28;19913;-69
2023/08/07 16:10:45;;;;;;;;;;;;;;;;;;6188602;28;20148;-70
2023/08/07 16:13:46;;;;;;;1.08;0.98;;;;;;;;;;5843045;28;9999981;-68
2023/08/07 16:16:46;;;;;;;;;;;;;;;;;;6194853;28;20045;-70
2023/08/07 16:19:46;;;;;;;2.90;2.13;;;;;;;;;;6191076;28;19928;-71
2023/08/07 16:22:46;;;;;;;1.60;1.43;;;;;;;;;;6190477;28;20022;-70
2023/08/07 16:25:46;;;;;;;;;;;;;;;;;;6196530;28;20041;-71
2023/08/07 16:28:47;;;;;;;2.85;1.10;;;;;;;;;;6189755;28;19917;-70
2023/08/07 16:31:47;;;;;;;1.42;1.10;;;;;;;;;;6164920;28;20086;-70
2023/08/07 16:34:48;;;;;;;;;;;;;;;;;;6186668;28;20066;-70
2023/08/07 16:37:48;;;;;;;2.50;1.10;;;;;;;;;;6180985;28;19976;-70
2023/08/07 16:40:48;;;;;;;;;;;;;;;;;;6182854;28;20030;-70
2023/08/07 16:43:48;;;;;;;1.10;1.00;;;;;;;;;;6188924;28;19916;-70
2023/08/07 16:46:48;;;;;;;;;;;;;;;;;;6183377;28;20029;-70
2023/08/07 16:49:49;;;;;;;1.45;0.93;;;;;;;;;;6179604;28;19917;-70
2023/08/07 16:52:50;;;;;;;3.40;1.17;;;;;;;;;;6181326;28;20397;-70
2023/08/07 16:55:50;;;;;;;1.40;0.90;;;;;;;;;;6182510;28;20121;-70
2023/08/07 16:58:50;;;;;;;3.40;1.53;;;;;;;;;;6163800;28;20593;-71
2023/08/07 17:01:50;;;;;;;6.30;2.20;;;;;;;;;;6179649;28;20049;-68
2023/08/07 17:04:51;;;;;;;1.87;1.60;;;;;;;;;;6180077;28;20124;-70
2023/08/07 17:07:51;;;;;;;1.50;1.10;;;;;;;;;;6182717;28;20121;-73
2023/08/07 17:10:51;;;;;;;1.10;0.90;;;;;;;;;;6179882;28;20169;-71
2023/08/07 17:13:51;;;;;;;0.80;0.80;;;;;;;;;;6179256;28;20033;-71
2023/08/07 17:16:52;;;;;;;1.70;0.90;;;;;;;;;;6175052;28;20037;-69
2023/08/07 17:19:52;;;;;;;1.57;0.93;;;;;;;;;;6176470;28;20113;-70
2023/08/07 17:22:53;;;;;;;2.33;1.10;;;;;;;;;;6177282;28;20992;-69
2023/08/07 17:25:53;;;;;;;1.45;0.93;;;;;;;;;;6179827;28;20022;-70
2023/08/07 17:28:56;;;;;;;0.80;0.70;;;;;;;;;;6178028;28;21849;-70
2023/08/07 17:31:58;;;;;;;1.20;0.90;;;;;;;;;;6177811;28;21664;-69
2023/08/07 17:35:00;;;;;;;1.95;1.45;;;;;;;;;;6152140;28;20513;-70
2023/08/07 17:38:00;;;;;;;1.60;1.42;;;;;;;;;;6159791;28;20423;-70
2023/08/07 17:41:01;;;;;;;2.40;1.27;;;;;;;;;;6180686;28;20054;-70
2023/08/07 17:44:01;;;;;;;1.17;1.00;;;;;;;;;;6179141;28;20018;-69
2023/08/07 17:47:01;;;;;;;0.70;0.70;;;;;;;;;;6181435;28;20031;-69
2023/08/07 17:50:02;;;;;;;0.60;0.60;;;;;;;;;;6187028;28;20133;-69
2023/08/07 17:53:03;;;;;;;0.68;0.60;;;;;;;;;;6186031;28;20072;-70
2023/08/07 17:56:03;;;;;;;0.70;0.53;;;;;;;;;;6185597;28;20042;-69
2023/08/07 17:59:05;;;;;;;1.90;0.70;;;;;;;;;;6186613;28;20214;-69
2023/08/07 18:02:05;;;;;;;2.28;0.80;;;;;;;;;;6177352;28;20045;-69
2023/08/07 18:05:05;;;;;;;0.90;0.80;;;;;;;;;;6179512;28;20067;-69
2023/08/07 18:08:06;;;;;;;1.40;0.53;;;;;;;;;;6185470;28;20037;-70
2023/08/07 18:11:06;;;;;;;1.17;0.60;;;;;;;;;;6182608;28;20077;-69